Time;durP1;ratioP1;P1;durP2;ratioP2;P2;SDS_P1;SDS_P2;PMS_P1;PMS_P2;Temp;Humidity;BMP_temperature;BMP_pressure;BME280_temperature;BME280_humidity;BME280_pressure;Samples;Min_cycle;Max_cycle;Signal;HPM_P1;HPM_P2
2022/07/02 00:05:13;;;;;;;4.22;2.50;;;;;;;30.27;41.46;100396.38;20243045;28;97683;-78
2022/07/02 00:15:15;;;;;;;3.83;2.30;;;;;;;30.26;41.07;100405.41;20246772;28;96830;-77
2022/07/02 00:25:15;;;;;;;2.90;2.40;;;;;;;30.27;41.26;100401.72;20241964;28;96851;-78
2022/07/02 00:35:17;;;;;;;2.83;2.20;;;;;;;30.23;41.06;100364.84;20243716;28;96777;-77
2022/07/02 00:45:18;;;;;;;2.72;2.50;;;;;;;30.21;41.41;100326.81;20242314;28;96820;-77
2022/07/02 00:55:18;;;;;;;2.38;2.17;;;;;;;30.18;41.63;100325.34;20241312;28;96824;-77
2022/07/02 01:05:20;;;;;;;2.50;2.30;;;;;;;30.21;41.36;100332.16;20256521;28;98819;-77
2022/07/02 01:15:20;;;;;;;2.20;2.00;;;;;;;30.19;41.26;100335.00;20271805;28;97105;-77
2022/07/02 01:25:22;;;;;;;2.35;2.15;;;;;;;30.17;41.39;100356.53;20256250;28;97371;-78
2022/07/02 01:35:22;;;;;;;2.88;2.10;;;;;;;30.21;41.44;100382.91;20253117;28;96890;-77
2022/07/02 01:45:23;;;;;;;2.10;2.00;;;;;;;30.21;41.21;100401.59;20254342;28;97445;-77
2022/07/02 01:55:24;;;;;;;2.20;2.00;;;;;;;30.15;41.57;100385.28;20252759;28;97473;-77
2022/07/02 02:05:24;;;;;;;3.03;1.90;;;;;;;30.15;41.42;100377.28;20256590;28;97322;-77
2022/07/02 02:15:25;;;;;;;1.80;1.70;;;;;;;30.11;41.44;100345.75;20250193;28;96852;-77
2022/07/02 02:25:25;;;;;;;1.88;1.70;;;;;;;30.10;41.38;100314.72;20266215;28;97370;-77
2022/07/02 02:35:25;;;;;;;3.17;1.83;;;;;;;30.08;41.31;100314.06;20255641;28;97351;-76
2022/07/02 02:45:26;;;;;;;1.70;1.60;;;;;;;30.09;41.37;100350.44;20250589;28;97390;-77
2022/07/02 02:55:26;;;;;;;2.05;1.40;;;;;;;30.09;41.35;100351.28;20254735;28;97363;-77
2022/07/02 03:05:26;;;;;;;1.90;1.35;;;;;;;30.11;41.28;100383.13;20242998;28;96760;-77
2022/07/02 03:15:27;;;;;;;1.60;1.35;;;;;;;30.11;41.08;100399.16;20238138;28;97519;-77
2022/07/02 03:25:28;;;;;;;1.38;1.23;;;;;;;30.10;41.15;100405.50;20232343;28;96956;-77
2022/07/02 03:35:28;;;;;;;1.30;1.10;;;;;;;30.07;41.17;100441.41;20237070;28;97336;-77
2022/07/02 03:45:29;;;;;;;2.22;1.17;;;;;;;30.01;40.75;100444.78;20234288;28;96838;-77
2022/07/02 03:55:29;;;;;;;2.60;1.25;;;;;;;29.98;40.72;100459.31;20236904;28;96847;-77
2022/07/02 04:05:30;;;;;;;1.23;1.13;;;;;;;29.98;40.93;100475.34;20237019;28;97034;-77
2022/07/02 04:15:30;;;;;;;1.20;1.10;;;;;;;30.00;40.92;100496.50;20233675;28;96968;-77
2022/07/02 04:25:30;;;;;;;1.08;1.08;;;;;;;30.00;41.05;100513.38;20236701;28;97160;-77
2022/07/02 04:35:31;;;;;;;1.30;1.10;;;;;;;30.02;41.06;100532.72;20241183;28;97103;-77
2022/07/02 04:45:32;;;;;;;1.20;1.10;;;;;;;30.03;40.71;100536.22;20249067;28;96712;-77
2022/07/02 04:55:33;;;;;;;1.10;1.00;;;;;;;30.01;40.56;100548.91;20248890;28;97149;-77
2022/07/02 05:05:34;;;;;;;0.90;0.90;;;;;;;29.99;40.97;100561.59;20241155;28;97486;-77
2022/07/02 05:15:34;;;;;;;1.52;1.08;;;;;;;29.99;40.98;100601.63;20246517;28;96769;-77
2022/07/02 05:25:35;;;;;;;0.98;0.88;;;;;;;29.95;41.10;100616.34;20239815;28;97373;-77
2022/07/02 05:35:35;;;;;;;1.20;1.08;;;;;;;29.96;40.84;100629.50;20243522;28;97437;-75
2022/07/02 05:45:36;;;;;;;1.10;1.00;;;;;;;29.97;40.58;100643.72;20244800;28;96818;-77
2022/07/02 05:55:36;;;;;;;2.47;0.70;;;;;;;29.95;40.63;100651.06;20242136;28;98493;-77
2022/07/02 06:15:55;;;;;;;1.33;0.80;;;;;;;29.92;40.61;100660.25;20248973;28;96806;-76
2022/07/02 06:25:56;;;;;;;1.02;1.02;;;;;;;29.94;40.57;100644.88;20242927;28;96723;-77
2022/07/02 06:35:56;;;;;;;0.90;0.90;;;;;;;29.92;40.89;100654.06;20246796;28;96873;-76
2022/07/02 06:45:57;;;;;;;1.00;0.90;;;;;;;29.93;40.96;100659.25;20232490;28;97008;-76
2022/07/02 06:55:57;;;;;;;1.00;1.00;;;;;;;29.95;40.91;100651.88;20243541;28;96904;-76
2022/07/02 07:05:58;;;;;;;1.08;1.00;;;;;;;29.95;40.38;100667.06;20238810;28;96960;-76
2022/07/02 07:15:59;;;;;;;0.90;0.90;;;;;;;29.95;40.89;100680.41;20236134;28;97685;-76
2022/07/02 07:26:00;;;;;;;0.90;0.90;;;;;;;29.95;40.93;100691.09;20239726;28;97057;-76
2022/07/02 07:36:00;;;;;;;0.90;0.90;;;;;;;29.95;40.62;100699.94;20237319;28;97277;-76
2022/07/02 07:46:01;;;;;;;1.45;1.35;;;;;;;29.97;40.37;100710.47;20235677;28;97283;-76
2022/07/02 07:56:02;;;;;;;1.45;1.33;;;;;;;29.94;40.56;100706.28;20235625;28;97082;-77
2022/07/02 08:06:02;;;;;;;1.77;1.67;;;;;;;29.95;40.40;100712.47;20234915;28;96952;-76
2022/07/02 08:16:03;;;;;;;1.60;1.50;;;;;;;29.95;40.78;100715.13;20234529;28;96983;-76
2022/07/02 08:26:04;;;;;;;2.10;1.90;;;;;;;29.93;40.93;100709.97;20232999;28;97846;-75
2022/07/02 08:36:05;;;;;;;2.47;2.28;;;;;;;29.93;40.75;100709.13;20237183;28;96719;-76
2022/07/02 08:46:07;;;;;;;3.53;2.50;;;;;;;29.91;40.50;100701.28;20239407;28;96865;-75
2022/07/02 08:56:08;;;;;;;2.20;2.00;;;;;;;29.92;40.56;100702.97;20237958;28;97712;-76
2022/07/02 09:06:09;;;;;;;2.17;2.00;;;;;;;29.95;40.46;100693.78;20231061;28;96864;-76
2022/07/02 09:16:10;;;;;;;2.40;2.20;;;;;;;29.94;40.79;100690.25;20232338;28;96904;-76
2022/07/02 09:26:19;;;;;;;2.72;2.40;;;;;;;29.93;40.82;100685.09;20241701;28;96815;-76
2022/07/02 09:36:21;;;;;;;2.95;2.50;;;;;;;29.92;40.44;100680.75;20246714;28;97003;-76
2022/07/02 09:46:21;;;;;;;2.33;2.13;;;;;;;29.93;40.56;100685.94;20247947;28;97037;-76
2022/07/02 09:56:23;;;;;;;3.22;2.20;;;;;;;29.95;40.50;100685.75;20241988;28;97149;-76
2022/07/02 10:06:24;;;;;;;2.30;2.13;;;;;;;29.96;40.47;100690.09;20235605;28;96977;-76
2022/07/02 10:16:25;;;;;;;2.38;2.17;;;;;;;29.96;40.72;100688.25;20241798;28;96835;-77
2022/07/02 10:26:26;;;;;;;2.20;2.00;;;;;;;30.00;40.97;100684.25;20238000;28;96868;-76
2022/07/02 10:36:27;;;;;;;2.53;2.10;;;;;;;29.99;40.85;100689.75;20243124;28;97066;-76
2022/07/02 10:46:33;;;;;;;2.05;1.90;;;;;;;30.01;40.76;100672.56;20252106;28;96981;-77
2022/07/02 10:56:46;;;;;;;3.63;1.90;;;;;;;30.03;40.63;100659.88;20250869;28;96760;-76
2022/07/02 11:06:47;;;;;;;2.50;2.00;;;;;;;30.07;41.00;100665.69;20248737;28;98394;-75
2022/07/02 11:16:52;;;;;;;2.20;2.00;;;;;;;30.11;40.49;100672.34;20251275;28;96835;-76
2022/07/02 11:26:53;;;;;;;1.77;1.67;;;;;;;30.15;40.75;100663.00;20251210;28;96700;-76
2022/07/02 11:36:54;;;;;;;1.80;1.70;;;;;;;30.20;40.63;100670.50;20247038;28;96831;-75
2022/07/02 11:46:59;;;;;;;2.10;1.90;;;;;;;30.25;40.47;100660.13;20240977;28;96875;-76
2022/07/02 11:56:59;;;;;;;1.73;1.63;;;;;;;30.29;40.79;100656.09;20250457;28;96878;-75
2022/07/02 12:07:01;;;;;;;1.80;1.63;;;;;;;30.32;40.42;100647.75;20267235;28;97088;-76
2022/07/02 12:17:05;;;;;;;2.25;1.55;;;;;;;30.38;40.21;100645.38;20246642;28;97416;-76
2022/07/02 12:27:08;;;;;;;1.40;1.30;;;;;;;30.43;40.62;100640.34;20247637;28;96845;-75
2022/07/02 12:37:35;;;;;;;1.75;1.40;;;;;;;30.49;40.71;100636.97;20247559;28;97398;-75
2022/07/02 12:47:39;;;;;;;1.30;1.20;;;;;;;30.53;40.33;100633.00;20247990;28;96721;-76
2022/07/02 12:57:40;;;;;;;1.50;1.40;;;;;;;30.58;40.19;100613.75;20259006;28;97475;-76
2022/07/02 13:07:40;;;;;;;1.40;1.30;;;;;;;30.62;40.57;100615.06;20260852;28;96991;-76
2022/07/02 13:17:41;;;;;;;;;;;;;;;30.66;40.45;100606.53;20263868;28;96913;-76
2022/07/02 13:27:42;;;;;;;2.00;1.90;;;;;;;30.71;40.56;100599.81;20258352;28;97004;-76
2022/07/02 13:37:43;;;;;;;2.38;2.17;;;;;;;30.74;40.55;100589.59;20259389;28;97013;-76
2022/07/02 13:47:45;;;;;;;2.40;2.20;;;;;;;30.79;40.46;100595.22;20253343;28;97381;-75
2022/07/02 13:57:45;;;;;;;2.47;2.28;;;;;;;30.84;40.40;100593.88;20254625;28;97042;-76
2022/07/02 14:07:46;;;;;;;2.28;2.08;;;;;;;30.88;40.43;100585.31;20258349;28;96959;-75
2022/07/02 14:17:46;;;;;;;2.55;2.35;;;;;;;30.92;40.14;100581.28;20253645;28;96734;-75
2022/07/02 14:27:47;;;;;;;2.20;2.00;;;;;;;30.95;40.15;100575.56;20254329;28;96812;-76
2022/07/02 14:37:47;;;;;;;2.38;2.10;;;;;;;30.98;40.31;100571.69;20253242;28;96765;-76
2022/07/02 14:47:48;;;;;;;2.40;2.20;;;;;;;31.01;39.88;100565.16;20246246;28;97659;-76
2022/07/02 14:57:49;;;;;;;2.08;1.88;;;;;;;31.02;40.05;100556.97;20235924;28;96949;-76
2022/07/02 15:07:49;;;;;;;2.33;1.80;;;;;;;31.03;40.30;100560.47;20235678;28;98040;-76
2022/07/02 15:17:50;;;;;;;2.30;1.92;;;;;;;31.04;40.36;100556.78;20234652;28;96855;-76
2022/07/02 15:27:52;;;;;;;1.70;1.60;;;;;;;31.06;39.74;100550.22;20237305;28;97340;-76
2022/07/02 15:37:57;;;;;;;2.17;1.67;;;;;;;31.06;40.25;100544.88;20235070;28;96771;-76
2022/07/02 15:47:59;;;;;;;1.90;1.73;;;;;;;31.08;39.86;100542.03;20234848;28;96877;-77
2022/07/02 15:58:04;;;;;;;1.88;1.70;;;;;;;31.08;40.14;100537.56;20233127;28;96977;-77
2022/07/02 16:08:05;;;;;;;2.42;1.63;;;;;;;31.07;39.88;100537.72;20232409;28;97522;-76
2022/07/02 16:18:06;;;;;;;1.58;1.48;;;;;;;31.05;40.14;100535.19;20236949;28;97760;-76
2022/07/02 16:28:06;;;;;;;1.98;1.65;;;;;;;31.03;40.13;100536.38;20235366;28;96796;-77
2022/07/02 16:38:10;;;;;;;1.50;1.40;;;;;;;31.01;40.17;100554.47;20242008;28;96782;-77
2022/07/02 16:48:12;;;;;;;1.55;1.45;;;;;;;30.96;40.18;100550.47;20245718;28;97516;-77
2022/07/02 16:58:14;;;;;;;1.67;1.58;;;;;;;30.95;39.88;100559.50;20241099;28;97062;-77
2022/07/02 17:08:14;;;;;;;1.40;1.30;;;;;;;30.91;40.49;100560.06;20245323;28;98708;-77
2022/07/02 17:18:15;;;;;;;1.98;1.67;;;;;;;30.88;40.39;100557.75;20244969;28;96763;-77
2022/07/02 17:28:15;;;;;;;1.98;1.70;;;;;;;30.86;39.88;100557.09;20244728;28;97113;-76
2022/07/02 17:38:18;;;;;;;2.58;2.35;;;;;;;30.81;40.04;100557.66;20255181;28;96873;-77
2022/07/02 17:48:19;;;;;;;3.33;3.03;;;;;;;30.75;40.03;100563.69;20241030;28;98386;-76
2022/07/02 17:58:21;;;;;;;3.92;3.28;;;;;;;30.71;39.92;100565.88;20240810;28;97058;-76
2022/07/02 18:08:23;;;;;;;4.03;3.50;;;;;;;30.68;40.06;100562.75;20237584;28;97114;-76
2022/07/02 18:18:24;;;;;;;3.78;3.35;;;;;;;30.62;40.13;100561.63;20239258;28;97133;-77
2022/07/02 18:28:25;;;;;;;3.30;3.00;;;;;;;30.59;40.44;100568.16;20236023;28;97619;-77
2022/07/02 18:38:26;;;;;;;3.67;3.20;;;;;;;30.58;39.84;100561.13;20245026;28;96798;-76
2022/07/02 18:48:26;;;;;;;3.40;3.10;;;;;;;30.57;39.77;100580.03;20240428;28;97479;-76
2022/07/02 18:58:26;;;;;;;;;;;;;;;30.53;39.42;100582.22;20242387;28;96812;-76
2022/07/02 19:08:27;;;;;;;;;;;;;;;30.52;40.11;100591.25;20239631;28;96866;-77
2022/07/02 19:18:27;;;;;;;3.03;2.83;;;;;;;30.45;39.62;100600.94;20235727;28;96847;-77
2022/07/02 19:38:46;;;;;;;3.40;2.73;;;;;;;30.38;40.10;100608.81;20237833;28;96867;-75
2022/07/02 19:48:46;;;;;;;;;;;;;;;30.38;39.76;100613.34;20232667;28;97458;-76
2022/07/02 19:58:47;;;;;;;;;;;;;;;30.36;39.55;100618.84;20234871;28;97874;-76
2022/07/02 20:08:47;;;;;;;3.08;2.50;;;;;;;30.36;39.67;100632.22;20230969;28;96744;-75
2022/07/02 20:18:48;;;;;;;2.88;2.63;;;;;;;30.33;39.78;100645.91;20232658;28;97749;-76
2022/07/02 20:28:49;;;;;;;2.60;2.40;;;;;;;30.32;39.66;100658.44;20230602;28;97306;-76
2022/07/02 20:38:49;;;;;;;2.53;2.30;;;;;;;30.29;39.95;100664.13;20238510;28;96804;-76
2022/07/02 20:48:51;;;;;;;2.30;2.10;;;;;;;30.29;39.75;100671.31;20232487;28;96854;-76
2022/07/02 20:58:51;;;;;;;2.67;2.30;;;;;;;30.26;40.36;100677.84;20248701;28;97434;-76
2022/07/02 21:08:52;;;;;;;2.53;2.33;;;;;;;30.24;39.92;100679.00;20232768;28;96826;-76
2022/07/02 21:18:53;;;;;;;2.42;2.22;;;;;;;30.22;39.98;100678.34;20243528;28;96917;-76
2022/07/02 21:28:53;;;;;;;2.80;2.60;;;;;;;30.22;39.88;100679.16;20245426;28;97885;-76
2022/07/02 21:38:54;;;;;;;2.55;2.30;;;;;;;30.22;40.08;100676.50;20243834;28;96794;-76
2022/07/02 21:49:00;;;;;;;2.58;2.35;;;;;;;30.21;40.32;100655.31;20241165;28;96855;-75
2022/07/02 21:59:00;;;;;;;3.25;2.25;;;;;;;30.21;40.14;100671.34;20243077;28;96928;-76
2022/07/02 22:09:00;;;;;;;2.47;2.28;;;;;;;30.21;40.09;100666.00;20238544;28;96793;-76
2022/07/02 22:19:01;;;;;;;;;;;;;;;30.20;40.03;100667.84;20250289;28;97012;-76
2022/07/02 22:29:01;;;;;;;2.50;2.30;;;;;;;30.19;39.99;100674.19;20247591;28;97796;-76
2022/07/02 22:39:02;;;;;;;2.35;2.22;;;;;;;30.17;40.18;100660.97;20246384;28;97305;-76
2022/07/02 22:49:02;;;;;;;3.03;2.33;;;;;;;30.18;40.25;100670.66;20251250;28;96967;-76
2022/07/02 22:59:02;;;;;;;7.13;2.90;;;;;;;30.15;40.29;100667.50;20244765;28;97291;-76
2022/07/02 23:09:03;;;;;;;7.35;4.28;;;;;;;29.69;37.94;100670.75;20232661;28;97777;-76
2022/07/02 23:19:04;;;;;;;7.35;4.40;;;;;;;28.87;38.21;100671.53;20234673;28;98185;-79
2022/07/02 23:29:05;;;;;;;5.38;4.60;;;;;;;27.68;40.86;100670.41;20235924;28;99498;-78
2022/07/02 23:39:07;;;;;;;5.23;4.47;;;;;;;26.87;42.42;100677.44;20238644;28;98846;-80
2022/07/02 23:49:07;;;;;;;5.78;4.70;;;;;;;26.52;43.16;100670.06;20256154;28;97282;-78
2022/07/02 23:59:08;;;;;;;6.30;4.40;;;;;;;26.11;43.34;100672.19;20238143;28;97297;-77
